Time;durP1;ratioP1;P1;durP2;ratioP2;P2;SDS_P1;SDS_P2;PMS_P1;PMS_P2;Temp;Humidity;BMP_temperature;BMP_pressure;BME280_temperature;BME280_humidity;BME280_pressure;Samples;Min_cycle;Max_cycle;Signal;HPM_P1;HPM_P2
2022/05/11 00:00:39;;;;;;;1.83;1.70;;;24.40;52.40;;;;;;5057617;28;20181;-89
2022/05/11 00:03:05;;;;;;;1.77;1.60;;;24.40;52.40;;;;;;5058555;28;20172;-89
2022/05/11 00:05:32;;;;;;;2.00;1.90;;;24.30;52.40;;;;;;5058637;28;20281;-89
2022/05/11 00:07:58;;;;;;;2.43;2.07;;;24.30;52.40;;;;;;5075194;28;20170;-89
2022/05/11 00:10:24;;;;;;;2.00;1.90;;;24.30;52.40;;;;;;5056738;28;20204;-89
2022/05/11 00:12:50;;;;;;;1.70;1.60;;;24.30;52.40;;;;;;5056917;28;20463;-89
2022/05/11 00:15:20;;;;;;;1.87;1.63;;;24.30;52.40;;;;;;5057420;28;20561;-89
2022/05/11 00:17:45;;;;;;;2.30;1.73;;;24.30;52.40;;;;;;5057215;28;20208;-89
2022/05/11 00:20:13;;;;;;;3.57;1.93;;;24.30;52.40;;;;;;5057573;28;20216;-89
2022/05/11 00:22:39;;;;;;;2.33;2.10;;;24.30;52.40;;;;;;5057526;28;20190;-89
2022/05/11 00:27:32;;;;;;;3.77;1.80;;;24.20;52.40;;;;;;5053993;28;20220;-16
2022/05/11 00:29:58;;;;;;;1.80;1.70;;;24.20;52.50;;;;;;5055247;28;20232;-18
2022/05/11 00:32:25;;;;;;;1.80;1.70;;;24.20;52.50;;;;;;5036766;28;20277;-17
2022/05/11 00:34:52;;;;;;;2.20;2.00;;;24.20;52.50;;;;;;5053487;28;20181;-16
2022/05/11 00:37:19;;;;;;;3.57;1.90;;;24.20;52.60;;;;;;5053127;28;20185;-17
2022/05/11 00:39:45;;;;;;;2.27;1.67;;;24.20;52.50;;;;;;5054941;28;20561;-16
2022/05/11 00:42:11;;;;;;;1.87;1.70;;;24.20;52.50;;;;;;5037645;28;20178;-17
2022/05/11 00:44:37;;;;;;;4.37;1.80;;;24.20;52.50;;;;;;5054542;28;20265;-19
2022/05/11 00:47:14;;;;;;;2.43;1.70;;;24.10;52.50;;;;;;5054781;28;20181;-18
2022/05/11 00:49:55;;;;;;;1.97;1.60;;;24.10;52.50;;;;;;5055717;28;20649;-16
2022/05/11 00:52:41;;;;;;;1.90;1.60;;;24.10;52.50;;;;;;5037073;28;20189;-18
2022/05/11 00:55:19;;;;;;;1.90;1.70;;;24.10;52.50;;;;;;5054502;28;20173;-18
2022/05/11 00:58:09;;;;;;;1.57;1.47;;;24.10;52.60;;;;;;5037463;28;20278;-17
2022/05/11 01:00:36;;;;;;;2.27;1.43;;;24.10;52.50;;;;;;5054057;28;20181;-18
2022/05/11 01:03:21;;;;;;;3.57;1.80;;;24.10;52.50;;;;;;5055446;28;20561;-17
2022/05/11 01:05:47;;;;;;;2.07;1.50;;;24.10;52.60;;;;;;5054248;28;20179;-18
2022/05/11 01:08:15;;;;;;;2.93;1.60;;;24.10;52.60;;;;;;5050626;28;20347;-16
2022/05/11 01:10:42;;;;;;;2.13;1.93;;;24.10;52.60;;;;;;5051462;28;20317;-16
2022/05/11 01:13:11;;;;;;;2.10;1.50;;;24.00;52.60;;;;;;5034704;28;20170;-19
2022/05/11 01:15:37;;;;;;;1.90;1.60;;;24.10;52.60;;;;;;5051161;28;20166;-18
2022/05/11 01:18:06;;;;;;;2.27;1.60;;;24.00;52.60;;;;;;5053081;28;20169;-17
2022/05/11 01:20:33;;;;;;;1.60;1.50;;;24.00;52.60;;;;;;5053593;28;20185;-18
2022/05/11 01:23:11;;;;;;;1.60;1.50;;;24.00;53.00;;;;;;5036287;28;20179;-19
2022/05/11 01:25:37;;;;;;;2.27;1.60;;;24.00;52.60;;;;;;5054305;28;20201;-20
2022/05/11 01:28:11;;;;;;;1.67;1.57;;;24.00;52.60;;;;;;5037535;28;20180;-18
2022/05/11 01:30:48;;;;;;;1.50;1.40;;;24.00;52.60;;;;;;5054620;28;20608;-16
2022/05/11 01:33:17;;;;;;;1.83;1.60;;;24.00;52.60;;;;;;5037006;28;20201;-16
2022/05/11 01:36:07;;;;;;;1.80;1.70;;;24.00;52.60;;;;;;5054761;28;20178;-18
2022/05/11 01:38:41;;;;;;;1.50;1.40;;;24.00;52.60;;;;;;5054368;28;20617;-17
2022/05/11 01:41:09;;;;;;;1.80;1.50;;;24.00;52.60;;;;;;5059187;28;20225;-17
2022/05/11 01:43:37;;;;;;;1.50;1.40;;;24.00;52.60;;;;;;5040929;28;20181;-18
2022/05/11 01:46:03;;;;;;;1.50;1.40;;;23.90;52.60;;;;;;5058403;28;20227;-17
2022/05/11 01:48:30;;;;;;;3.10;1.63;;;23.90;52.50;;;;;;5039338;28;20182;-20
2022/05/11 01:50:57;;;;;;;1.70;1.60;;;23.90;52.60;;;;;;5057580;28;20184;-16
2022/05/11 01:53:24;;;;;;;3.10;1.70;;;23.90;52.60;;;;;;5040908;28;20179;-16
2022/05/11 01:55:49;;;;;;;1.70;1.60;;;23.90;52.60;;;;;;5040132;28;20212;-18
2022/05/11 01:58:17;;;;;;;2.03;1.47;;;23.90;52.60;;;;;;5057497;28;20467;-18
2022/05/11 02:00:45;;;;;;;1.53;1.43;;;23.90;52.60;;;;;;5058182;28;20565;-17
2022/05/11 02:03:11;;;;;;;1.83;1.73;;;23.90;52.60;;;;;;5040520;28;20241;-18
2022/05/11 02:08:22;;;;;;;1.50;1.40;;;23.90;52.60;;;;;;5057877;28;20186;-16
2022/05/11 02:10:49;;;;;;;1.50;1.40;;;23.90;52.60;;;;;;5057866;28;20199;-18
2022/05/11 02:13:15;;;;;;;1.40;1.30;;;23.80;52.60;;;;;;5039174;28;20186;-17
2022/05/11 02:15:41;;;;;;;2.13;1.50;;;23.90;52.60;;;;;;5058369;28;20182;-18
2022/05/11 02:18:07;;;;;;;1.63;1.47;;;23.80;52.50;;;;;;5040998;28;20181;-20
2022/05/11 02:20:34;;;;;;;1.50;1.40;;;23.90;52.60;;;;;;5040597;28;20183;-17
2022/05/11 02:23:00;;;;;;;1.53;1.43;;;23.80;52.60;;;;;;5058326;28;20269;-17
2022/05/11 02:25:26;;;;;;;1.60;1.50;;;23.80;52.60;;;;;;5040677;28;20345;-17
2022/05/11 02:27:52;;;;;;;1.77;1.50;;;23.80;52.60;;;;;;5057885;28;20205;-18
2022/05/11 02:30:26;;;;;;;1.60;1.30;;;23.80;52.60;;;;;;5040519;28;20214;-18
2022/05/11 02:32:53;;;;;;;1.70;1.60;;;23.80;52.60;;;;;;5057820;28;20184;-19
2022/05/11 02:35:20;;;;;;;1.60;1.40;;;23.80;52.60;;;;;;5041133;28;20177;-19
2022/05/11 02:37:50;;;;;;;3.00;1.60;;;23.80;52.60;;;;;;5058469;28;20184;-18
2022/05/11 02:40:21;;;;;;;1.50;1.40;;;23.70;52.60;;;;;;5058148;28;20564;-17
2022/05/11 02:42:47;;;;;;;1.50;1.40;;;23.70;52.60;;;;;;5040997;28;20187;-19
2022/05/11 02:45:15;;;;;;;1.50;1.40;;;23.70;52.60;;;;;;5058098;28;20170;-16
2022/05/11 02:47:41;;;;;;;1.53;1.43;;;23.70;52.60;;;;;;5039402;28;20181;-17
2022/05/11 02:50:09;;;;;;;1.50;1.40;;;23.70;52.60;;;;;;5057340;28;20231;-17
2022/05/11 02:52:35;;;;;;;1.50;1.40;;;23.70;52.60;;;;;;5057058;28;20266;-17
2022/05/11 02:55:01;;;;;;;1.53;1.43;;;23.70;52.60;;;;;;5057926;28;20178;-16
2022/05/11 02:57:27;;;;;;;1.40;1.30;;;23.70;52.60;;;;;;5040102;28;20186;-17
2022/05/11 02:59:53;;;;;;;2.70;1.43;;;23.70;52.60;;;;;;5040258;28;20296;-19
2022/05/11 03:02:20;;;;;;;1.50;1.40;;;23.70;52.60;;;;;;5039820;28;20461;-16
2022/05/11 03:04:50;;;;;;;1.50;1.40;;;23.70;52.60;;;;;;5057059;28;20172;-18
2022/05/11 03:07:16;;;;;;;1.70;1.50;;;23.70;52.60;;;;;;5057785;28;20175;-16
2022/05/11 03:09:42;;;;;;;1.77;1.60;;;23.70;52.60;;;;;;5056390;28;20233;-18
2022/05/11 03:12:09;;;;;;;1.60;1.50;;;23.60;52.60;;;;;;5057481;28;20621;-18
2022/05/11 03:14:34;;;;;;;2.17;1.47;;;23.60;52.60;;;;;;5038590;28;20275;-18
2022/05/11 03:17:02;;;;;;;1.50;1.40;;;23.60;52.60;;;;;;5039333;28;20419;-19
2022/05/11 03:19:29;;;;;;;1.40;1.30;;;23.60;52.60;;;;;;5056612;28;20633;-16
2022/05/11 03:21:55;;;;;;;1.43;1.33;;;23.60;52.60;;;;;;5039721;28;20180;-17
2022/05/11 03:24:21;;;;;;;1.30;1.20;;;23.60;52.60;;;;;;5056891;28;20172;-18
2022/05/11 03:26:47;;;;;;;1.70;1.57;;;23.60;52.60;;;;;;5039379;28;20277;-18
2022/05/11 03:29:12;;;;;;;1.60;1.50;;;23.60;52.60;;;;;;5056306;28;20363;-20
2022/05/11 03:31:39;;;;;;;1.63;1.53;;;23.60;52.60;;;;;;5056016;28;20740;-19
2022/05/11 03:36:51;;;;;;;1.40;1.30;;;23.60;52.60;;;;;;5056695;28;20176;-17
2022/05/11 03:39:18;;;;;;;1.50;1.40;;;23.50;52.60;;;;;;5055428;28;20181;-17
2022/05/11 03:41:47;;;;;;;1.40;1.30;;;23.60;52.60;;;;;;5038293;28;20204;-17
2022/05/11 03:44:13;;;;;;;1.40;1.30;;;23.50;52.60;;;;;;5038318;28;20180;-17
2022/05/11 03:46:39;;;;;;;1.20;1.10;;;23.50;52.60;;;;;;5034429;28;20181;-16
2022/05/11 03:49:05;;;;;;;1.23;1.13;;;23.50;52.60;;;;;;5054891;28;20211;-17
2022/05/11 03:51:30;;;;;;;1.40;1.30;;;23.50;52.60;;;;;;5055684;28;20563;-17
2022/05/11 03:53:56;;;;;;;1.30;1.20;;;23.50;52.60;;;;;;5037483;28;20234;-20
2022/05/11 03:56:22;;;;;;;1.73;1.40;;;23.50;52.60;;;;;;5055884;28;20168;-16
2022/05/11 03:58:48;;;;;;;1.47;1.37;;;23.50;52.60;;;;;;5055709;28;20186;-20
2022/05/11 04:01:14;;;;;;;2.20;1.30;;;23.50;52.60;;;;;;5037054;28;20238;-18
2022/05/11 04:03:41;;;;;;;1.53;1.30;;;23.50;53.00;;;;;;5037603;28;20191;-19
2022/05/11 04:06:07;;;;;;;1.50;1.40;;;23.50;52.50;;;;;;5055326;28;20169;-18
2022/05/11 04:08:33;;;;;;;1.47;1.37;;;23.50;52.90;;;;;;5037044;28;20171;-18
2022/05/11 04:10:58;;;;;;;1.60;1.20;;;23.50;52.60;;;;;;5036727;28;20187;-18
2022/05/11 04:13:24;;;;;;;1.93;1.40;;;23.50;52.50;;;;;;5036737;28;20208;-16
2022/05/11 04:15:51;;;;;;;1.30;1.20;;;23.50;52.50;;;;;;5055511;28;20456;-19
2022/05/11 04:18:18;;;;;;;1.30;1.20;;;23.50;52.50;;;;;;5055005;28;20494;-17
2022/05/11 04:20:44;;;;;;;1.40;1.30;;;23.40;52.50;;;;;;5054574;28;20248;-17
2022/05/11 04:23:10;;;;;;;1.50;1.40;;;23.40;52.50;;;;;;5035887;28;20181;-18
2022/05/11 04:25:36;;;;;;;1.37;1.27;;;23.50;52.50;;;;;;5054826;28;20189;-20
2022/05/11 04:28:06;;;;;;;1.30;1.20;;;23.50;52.50;;;;;;5033301;28;20184;-18
2022/05/11 04:30:31;;;;;;;1.37;1.27;;;23.50;52.50;;;;;;5024759;28;20206;-20
2022/05/11 04:33:01;;;;;;;1.83;1.20;;;23.40;52.40;;;;;;5034162;28;20202;-16
2022/05/11 04:35:34;;;;;;;1.50;1.40;;;23.50;52.90;;;;;;5034301;28;20187;-20
2022/05/11 04:38:01;;;;;;;1.97;1.53;;;23.50;52.40;;;;;;5033857;28;20181;-19
2022/05/11 04:40:28;;;;;;;1.30;1.20;;;23.50;52.40;;;;;;5017399;28;20456;-17
2022/05/11 04:42:54;;;;;;;1.40;1.30;;;23.50;52.40;;;;;;5033607;28;20187;-18
2022/05/11 04:45:20;;;;;;;1.30;1.20;;;23.50;52.40;;;;;;5015695;28;20180;-20
2022/05/11 04:47:46;;;;;;;1.30;1.20;;;23.50;52.40;;;;;;5024454;28;20185;-17
2022/05/11 04:50:14;;;;;;;2.00;1.40;;;23.50;52.30;;;;;;5045141;28;20201;-17
2022/05/11 04:52:41;;;;;;;1.50;1.40;;;23.40;52.30;;;;;;5041456;28;20595;-19
2022/05/11 04:55:09;;;;;;;1.30;1.20;;;23.50;52.30;;;;;;5034411;28;20186;-20
2022/05/11 04:57:35;;;;;;;1.30;1.20;;;23.40;52.30;;;;;;5043820;28;20172;-17
2022/05/11 05:02:36;;;;;;;1.40;1.20;;;23.50;52.30;;;;;;5042874;22;20334;-17
2022/05/11 05:05:05;;;;;;;2.20;1.27;;;23.50;52.20;;;;;;5032771;28;20512;-17
2022/05/11 05:07:34;;;;;;;1.50;1.40;;;23.50;52.10;;;;;;5034030;28;20475;-17
2022/05/11 05:10:01;;;;;;;1.40;1.30;;;23.50;52.10;;;;;;5047750;28;20218;-22
2022/05/11 05:12:27;;;;;;;1.50;1.40;;;23.50;52.10;;;;;;5045001;28;20453;-20
2022/05/11 05:14:52;;;;;;;1.40;1.30;;;23.50;52.10;;;;;;5036338;28;20235;-17
2022/05/11 05:17:18;;;;;;;1.40;1.30;;;23.50;52.10;;;;;;5031440;28;20522;-16
2022/05/11 05:19:45;;;;;;;1.20;1.10;;;23.50;52.00;;;;;;5041964;28;20177;-18
2022/05/11 05:22:12;;;;;;;1.40;1.30;;;23.50;52.00;;;;;;5038228;28;20180;-17
2022/05/11 05:24:37;;;;;;;1.73;1.30;;;23.60;52.00;;;;;;5032029;28;20178;-16
2022/05/11 05:27:04;;;;;;;1.43;1.10;;;23.60;52.00;;;;;;5035411;28;20350;-18
2022/05/11 05:32:15;;;;;;;1.50;1.30;;;23.60;52.00;;;;;;5033528;28;20183;-19
2022/05/11 05:34:43;;;;;;;1.50;1.40;;;23.60;52.00;;;;;;5047079;28;20191;-18
2022/05/11 05:37:10;;;;;;;1.80;1.47;;;23.60;52.00;;;;;;5037418;28;20285;-19
2022/05/11 05:39:36;;;;;;;1.30;1.20;;;23.60;52.00;;;;;;5048756;28;20181;-21
2022/05/11 05:42:02;;;;;;;1.83;1.40;;;23.60;52.00;;;;;;5037361;28;20188;-17
2022/05/11 05:44:31;;;;;;;1.30;1.13;;;23.60;52.00;;;;;;5040079;28;20601;-18
2022/05/11 05:47:02;;;;;;;1.70;1.43;;;23.70;52.00;;;;;;5045956;28;20478;-20
2022/05/11 05:49:29;;;;;;;2.57;1.40;;;23.70;51.90;;;;;;5046973;28;20201;-19
2022/05/11 05:51:54;;;;;;;1.73;1.50;;;23.70;51.80;;;;;;5027423;28;20187;-18
2022/05/11 05:54:20;;;;;;;2.00;1.30;;;23.80;51.70;;;;;;5041117;28;20237;-21
2022/05/11 05:56:46;;;;;;;2.70;1.57;;;23.80;51.80;;;;;;5037020;28;20216;-20
2022/05/11 05:59:14;;;;;;;1.90;1.37;;;23.90;51.70;;;;;;5027208;28;20273;-17
2022/05/11 06:01:40;;;;;;;2.40;1.40;;;23.90;51.70;;;;;;5025831;28;20416;-20
2022/05/11 06:04:05;;;;;;;1.40;1.30;;;24.00;51.60;;;;;;5026071;28;20264;-18
2022/05/11 06:06:32;;;;;;;2.87;1.30;;;24.00;51.60;;;;;;5032329;28;20540;-17
2022/05/11 06:08:58;;;;;;;3.60;1.57;;;24.00;51.60;;;;;;5031408;28;20239;-18
2022/05/11 06:11:24;;;;;;;2.70;1.57;;;24.10;51.60;;;;;;5026659;28;20177;-19
2022/05/11 06:13:49;;;;;;;1.67;1.50;;;24.10;51.50;;;;;;5029367;28;20276;-19
2022/05/11 06:16:17;;;;;;;2.67;1.70;;;24.20;51.50;;;;;;5027567;28;20610;-19
2022/05/11 06:18:45;;;;;;;1.83;1.50;;;24.20;51.70;;;;;;5026899;28;20235;-18
2022/05/11 06:21:12;;;;;;;3.33;1.50;;;24.30;51.40;;;;;;5027541;28;20227;-17
2022/05/11 06:23:38;;;;;;;1.40;1.30;;;24.40;51.40;;;;;;5027986;28;20173;-19
2022/05/11 06:26:04;;;;;;;2.10;1.50;;;24.40;51.40;;;;;;5028061;28;20195;-19
2022/05/11 06:28:30;;;;;;;2.07;1.50;;;24.50;51.30;;;;;;5031244;28;20169;-21
2022/05/11 06:30:56;;;;;;;2.47;1.60;;;24.60;51.20;;;;;;5030613;28;20478;-21
2022/05/11 06:33:22;;;;;;;2.57;1.70;;;24.60;51.10;;;;;;5029515;28;20497;-17
2022/05/11 06:35:47;;;;;;;1.73;1.50;;;24.70;51.10;;;;;;5028850;28;20203;-20
2022/05/11 06:38:13;;;;;;;1.47;1.37;;;24.70;51.00;;;;;;5031326;28;20258;-18
2022/05/11 06:40:40;;;;;;;2.77;1.60;;;24.80;51.00;;;;;;5031321;28;20238;-19
2022/05/11 06:43:06;;;;;;;2.00;1.53;;;24.80;50.80;;;;;;5030094;28;20536;-17
2022/05/11 06:45:32;;;;;;;2.33;1.60;;;24.90;50.70;;;;;;5030103;28;20188;-17
2022/05/11 06:47:58;;;;;;;1.90;1.60;;;25.00;50.70;;;;;;5031113;28;20172;-18
2022/05/11 06:50:26;;;;;;;2.93;1.60;;;25.10;50.50;;;;;;5031554;28;20219;-20
2022/05/11 06:52:53;;;;;;;2.27;1.73;;;25.20;50.30;;;;;;5031346;28;20608;-19
2022/05/11 07:00:49;;;;;;;1.70;1.55;;;26.20;49.10;;;;;;5030177;28;20606;-18
2022/05/11 07:03:15;;;;;;;3.33;1.55;;;26.40;48.80;;;;;;5030904;28;20173;-21
2022/05/11 07:05:43;;;;;;;1.60;1.38;;;26.50;48.60;;;;;;5032462;28;20188;-22
2022/05/11 07:08:09;;;;;;;2.17;1.83;;;26.60;48.40;;;;;;5029969;28;20319;-18
2022/05/11 07:10:39;;;;;;;1.80;1.63;;;26.60;48.30;;;;;;5030852;28;20214;-20
2022/05/11 07:13:05;;;;;;;2.40;1.90;;;26.80;48.30;;;;;;5031003;28;20172;-19
2022/05/11 07:15:31;;;;;;;2.97;1.95;;;26.80;48.20;;;;;;5036904;28;20177;-21
2022/05/11 07:18:05;;;;;;;2.17;1.98;;;26.90;48.10;;;;;;5035834;28;20188;-20
2022/05/11 07:20:39;;;;;;;2.30;2.10;;;26.90;48.00;;;;;;5030660;28;20169;-17
2022/05/11 07:23:07;;;;;;;2.28;2.00;;;27.00;48.00;;;;;;5030385;28;20275;-21
2022/05/11 07:25:33;;;;;;;2.20;2.00;;;27.10;47.90;;;;;;5030801;28;20255;-21
2022/05/11 07:28:00;;;;;;;2.35;1.95;;;27.10;47.80;;;;;;5030880;28;20177;-19
2022/05/11 07:30:32;;;;;;;2.15;1.98;;;27.20;47.70;;;;;;5028987;28;20200;-25
2022/05/11 07:32:59;;;;;;;2.33;1.88;;;27.30;47.70;;;;;;5027102;28;20169;-21
2022/05/11 07:35:24;;;;;;;2.30;2.10;;;27.30;48.10;;;;;;5030987;28;20169;-19
2022/05/11 07:37:50;;;;;;;2.40;2.20;;;27.40;47.60;;;;;;5027448;28;20173;-19
2022/05/11 07:40:18;;;;;;;2.47;2.28;;;27.50;47.60;;;;;;5030468;28;20184;-19
2022/05/11 07:42:44;;;;;;;2.50;2.20;;;27.50;47.50;;;;;;5030035;28;20169;-22
2022/05/11 07:45:11;;;;;;;3.70;2.38;;;27.50;47.50;;;;;;5029788;28;20424;-21
2022/05/11 07:47:39;;;;;;;3.40;2.20;;;27.60;47.40;;;;;;5030612;28;20201;-21
2022/05/11 07:50:06;;;;;;;2.85;2.30;;;27.70;47.30;;;;;;5030716;28;20202;-21
2022/05/11 07:52:31;;;;;;;4.57;2.22;;;27.70;47.30;;;;;;5029924;28;20187;-22
2022/05/11 07:54:57;;;;;;;2.85;2.10;;;27.80;47.20;;;;;;5030248;28;20300;-22
2022/05/11 08:00:08;;;;;;;3.42;2.20;;;28.00;47.10;;;;;;5030896;28;20176;-19
2022/05/11 08:02:39;;;;;;;2.50;2.28;;;28.10;47.10;;;;;;5029564;28;20208;-23
2022/05/11 08:05:09;;;;;;;2.65;2.40;;;28.10;47.00;;;;;;5030981;28;20172;-19
2022/05/11 08:07:42;;;;;;;2.78;2.40;;;28.20;46.90;;;;;;5028697;28;20184;-22
2022/05/11 08:10:19;;;;;;;7.25;2.58;;;28.20;46.90;;;;;;5029590;28;20316;-22
2022/05/11 08:12:46;;;;;;;2.90;2.28;;;28.30;46.80;;;;;;5029313;28;20157;-22
2022/05/11 08:15:14;;;;;;;5.05;2.33;;;28.30;46.70;;;;;;5029364;28;20288;-21
2022/05/11 08:17:42;;;;;;;3.92;2.47;;;28.40;46.70;;;;;;5028862;28;20168;-22
2022/05/11 08:20:14;;;;;;;3.13;2.53;;;28.50;46.70;;;;;;5031029;28;20403;-20
2022/05/11 08:22:45;;;;;;;2.90;2.65;;;28.50;46.60;;;;;;5028608;28;20173;-22
2022/05/11 08:25:14;;;;;;;3.42;2.40;;;28.60;46.50;;;;;;5028196;28;20263;-21
2022/05/11 08:27:40;;;;;;;2.90;2.47;;;28.60;46.40;;;;;;5028881;28;20188;-23
2022/05/11 08:33:37;;;;;;;7.00;2.83;;;28.70;46.30;;;;;;5029801;28;20599;-10
2022/05/11 08:35:43;;;;;;;7.35;3.03;;;28.70;46.50;;;;;;5024006;28;20354;-10
2022/05/11 08:38:10;;;;;;;10.13;3.30;;;27.70;47.30;;;;;;5028061;28;20183;-11
2022/05/11 08:40:36;;;;;;;11.10;3.60;;;27.10;48.00;;;;;;5028485;28;20572;-11
2022/05/11 08:43:05;;;;;;;8.88;3.33;;;26.80;48.50;;;;;;5029022;28;20439;-10
2022/05/11 08:46:02;;;;;;;11.00;3.42;;;27.00;48.70;;;;;;5028658;28;20183;-11
2022/05/11 08:48:58;;;;;;;7.97;3.38;;;26.70;48.50;;;;;;4994037;28;20207;-9
2022/05/11 08:51:36;;;;;;;11.40;3.42;;;26.70;48.60;;;;;;5030193;28;20530;-12
2022/05/11 08:54:42;;;;;;;7.30;3.20;;;26.60;48.90;;;;;;5030015;28;20421;-10
2022/05/11 08:57:14;;;;;;;3.97;3.28;;;26.80;48.90;;;;;;5006697;28;20332;-9
2022/05/11 08:59:40;;;;;;;6.63;3.67;;;26.70;48.90;;;;;;5028758;28;20587;-10
2022/05/11 09:02:14;;;;;;;9.68;3.13;;;27.00;48.90;;;;;;5027853;28;20201;-10
2022/05/11 09:04:47;;;;;;;5.35;3.53;;;27.00;48.90;;;;;;5027726;28;20234;-8
2022/05/11 09:07:13;;;;;;;5.95;3.10;;;27.20;48.20;;;;;;5026857;28;20267;-10
2022/05/11 09:09:39;;;;;;;8.80;3.10;;;27.20;48.70;;;;;;5028266;28;20219;-10
2022/05/11 09:12:07;;;;;;;6.75;3.53;;;27.10;48.70;;;;;;5026255;28;20169;-10
2022/05/11 09:14:52;;;;;;;6.65;3.20;;;27.10;48.70;;;;;;5027741;28;20169;-10
2022/05/11 09:17:26;;;;;;;6.35;3.40;;;27.30;48.90;;;;;;5028341;28;20389;-8
2022/05/11 09:20:11;;;;;;;10.45;3.05;;;27.30;48.90;;;;;;5027861;28;20268;-11
2022/05/11 09:22:54;;;;;;;5.90;3.08;;;27.10;49.10;;;;;;5028140;28;20192;-9
2022/05/11 09:25:24;;;;;;;7.88;3.13;;;26.90;49.60;;;;;;5027719;28;20169;-9
2022/05/11 09:27:51;;;;;;;13.68;2.60;;;27.00;49.60;;;;;;5028706;28;20591;-7
2022/05/11 09:30:19;;;;;;;4.90;2.92;;;27.00;49.80;;;;;;5027750;28;20779;-10
2022/05/11 09:32:46;;;;;;;7.55;2.47;;;27.10;50.00;;;;;;5027774;28;20826;-9
2022/05/11 09:35:14;;;;;;;5.65;2.75;;;27.10;49.80;;;;;;5027558;28;20181;-10
2022/05/11 09:37:44;;;;;;;8.25;2.85;;;27.20;49.60;;;;;;5029109;28;20690;-10
2022/05/11 09:40:21;;;;;;;5.70;2.75;;;27.30;49.50;;;;;;5028559;28;20563;-10
2022/05/11 09:42:55;;;;;;;4.65;2.50;;;27.30;49.30;;;;;;5028979;28;20255;-12
2022/05/11 09:45:43;;;;;;;9.57;2.97;;;27.30;49.20;;;;;;5028042;28;20173;-10
2022/05/11 09:48:16;;;;;;;6.85;2.47;;;27.10;49.90;;;;;;5028846;28;20176;-10
2022/05/11 09:50:43;;;;;;;5.10;2.40;;;27.10;49.80;;;;;;5027520;28;20363;-9
2022/05/11 09:53:22;;;;;;;6.95;2.50;;;27.10;49.90;;;;;;5025628;28;20165;-9
2022/05/11 09:55:48;;;;;;;4.85;2.70;;;27.40;49.50;;;;;;5027592;28;20169;-7
2022/05/11 09:58:33;;;;;;;5.47;3.03;;;27.60;49.10;;;;;;5028218;28;20254;-11
2022/05/11 10:01:17;;;;;;;7.80;2.92;;;27.40;49.10;;;;;;5029568;28;20176;-10
2022/05/11 10:04:00;;;;;;;6.13;2.55;;;27.20;49.20;;;;;;5031216;28;20165;-10
2022/05/11 10:06:30;;;;;;;6.47;2.97;;;27.20;49.40;;;;;;5031710;28;20172;-8
2022/05/11 10:08:58;;;;;;;6.97;2.53;;;27.30;49.10;;;;;;5031893;28;20220;-9
2022/05/11 10:11:45;;;;;;;6.65;2.28;;;27.50;49.20;;;;;;5030586;28;20248;-12
2022/05/11 10:22:53;;;;;;;4.28;2.10;;;27.40;49.60;;;;;;5030539;28;20242;-10
2022/05/11 10:25:35;;;;;;;3.25;2.30;;;27.40;49.60;;;;;;5030675;28;20176;-9
2022/05/11 10:28:07;;;;;;;6.63;2.17;;;27.40;49.40;;;;;;5029353;28;20223;-9
2022/05/11 10:30:32;;;;;;;2.33;2.10;;;27.40;49.50;;;;;;5028497;28;20220;-9
2022/05/11 10:33:38;;;;;;;6.82;2.50;;;27.40;49.50;;;;;;5027867;28;20434;-9
2022/05/11 10:36:15;;;;;;;3.97;2.60;;;27.40;49.40;;;;;;5029780;28;20176;-11
2022/05/11 10:39:01;;;;;;;2.55;2.35;;;27.40;49.50;;;;;;5030694;28;20226;-10
2022/05/11 10:41:52;;;;;;;6.57;2.40;;;27.30;49.30;;;;;;5031054;28;20179;-9
2022/05/11 10:44:27;;;;;;;3.03;2.30;;;27.30;49.30;;;;;;5029087;28;20177;-8
2022/05/11 10:46:55;;;;;;;3.50;2.13;;;27.30;49.40;;;;;;5028754;28;20445;-9
2022/05/11 10:49:32;;;;;;;3.03;2.10;;;27.30;49.40;;;;;;5029878;28;20204;-6
2022/05/11 10:52:32;;;;;;;4.03;2.37;;;27.30;49.40;;;;;;5028992;28;20172;-7
2022/05/11 10:55:25;;;;;;;2.73;2.13;;;27.30;49.40;;;;;;5028125;28;20176;-8
2022/05/11 10:58:12;;;;;;;3.97;2.23;;;27.30;49.40;;;;;;5028862;28;20181;-10
2022/05/11 11:00:47;;;;;;;2.60;2.20;;;27.30;49.40;;;;;;5028448;28;20211;-9
2022/05/11 11:03:33;;;;;;;5.60;2.40;;;27.30;49.50;;;;;;5028556;28;20259;-7
2022/05/11 11:09:15;;;;;;;7.50;2.60;;;27.30;49.60;;;;;;5028949;28;20183;-8
2022/05/11 11:11:50;;;;;;;2.87;2.00;;;27.20;49.60;;;;;;5027945;28;20564;-8
2022/05/11 11:14:25;;;;;;;4.07;2.40;;;27.20;49.60;;;;;;5028686;28;20258;-9
2022/05/11 11:16:52;;;;;;;2.53;2.20;;;27.30;49.60;;;;;;5029280;28;20161;-10
2022/05/11 11:19:18;;;;;;;3.80;2.30;;;27.20;49.50;;;;;;5029352;28;20436;-8
2022/05/11 11:21:44;;;;;;;4.33;2.40;;;27.20;49.60;;;;;;5027114;28;20187;-7
2022/05/11 11:24:14;;;;;;;2.47;2.27;;;27.10;49.60;;;;;;5028292;28;20173;-8
2022/05/11 11:26:51;;;;;;;2.63;2.10;;;27.10;49.60;;;;;;5026683;28;20413;-7
2022/05/11 11:29:21;;;;;;;6.13;2.43;;;27.10;49.60;;;;;;5028316;28;20805;-7
2022/05/11 11:32:01;;;;;;;5.67;2.10;;;27.20;49.60;;;;;;5027773;28;20169;-8
2022/05/11 11:34:32;;;;;;;3.90;2.20;;;27.10;49.60;;;;;;5028261;28;20432;-8
2022/05/11 11:36:59;;;;;;;;;;;27.10;49.70;;;;;;5029869;28;20013;-8
2022/05/11 11:39:43;;;;;;;;;;;27.00;49.50;;;;;;5028638;28;20485;-8
2022/05/11 11:42:08;;;;;;;;;;;27.00;49.60;;;;;;5029183;28;19913;-7
2022/05/11 11:44:43;;;;;;;;;;;27.00;49.60;;;;;;5029731;28;19905;-7
2022/05/11 11:47:27;;;;;;;;;;;27.10;49.70;;;;;;5029156;28;19905;-6
2022/05/11 11:49:57;;;;;;;;;;;27.10;49.60;;;;;;5030045;28;19909;-8
2022/05/11 11:52:34;;;;;;;;;;;27.10;49.60;;;;;;5028635;28;19909;-8
2022/05/11 11:55:00;;;;;;;;;;;27.10;49.70;;;;;;5028769;28;20193;-8
2022/05/11 11:57:28;;;;;;;;;;;27.10;49.20;;;;;;5028900;28;20265;-7
2022/05/11 11:59:56;;;;;;;;;;;27.10;49.40;;;;;;5029154;28;20334;-7
2022/05/11 12:02:22;;;;;;;;;;;27.20;50.00;;;;;;5029624;28;20201;-10
2022/05/11 12:04:57;;;;;;;;;;;27.20;49.40;;;;;;5030070;28;19925;-8
2022/05/11 12:15:44;;;;;;;7.40;2.60;;;27.10;49.50;;;;;;5052986;28;20175;-8
2022/05/11 12:18:31;;;;;;;5.87;2.87;;;27.10;49.30;;;;;;5047074;28;20187;-8
2022/05/11 12:20:57;;;;;;;5.47;2.53;;;27.20;49.20;;;;;;5047527;28;20225;-8
2022/05/11 12:23:36;;;;;;;3.30;2.40;;;27.20;49.30;;;;;;5047972;28;20534;-8
2022/05/11 12:26:09;;;;;;;3.40;2.20;;;27.20;49.40;;;;;;5046747;28;20258;-8
2022/05/11 12:28:41;;;;;;;3.80;2.27;;;27.10;49.40;;;;;;5047513;28;20442;-8
2022/05/11 12:31:07;;;;;;;3.13;2.00;;;27.20;49.60;;;;;;5047131;28;20200;-8
2022/05/11 12:33:39;;;;;;;7.83;2.80;;;27.10;49.60;;;;;;5048489;28;20156;-9
2022/05/11 12:36:06;;;;;;;5.07;2.80;;;27.20;49.40;;;;;;5047892;28;20391;-8
2022/05/11 12:38:36;;;;;;;4.23;2.60;;;27.20;49.10;;;;;;5049556;28;20164;-9
2022/05/11 12:41:10;;;;;;;5.00;2.43;;;27.10;49.40;;;;;;5055077;28;20266;-8
2022/05/11 12:43:39;;;;;;;5.10;2.30;;;27.10;49.20;;;;;;5055472;28;20164;-7
2022/05/11 12:46:13;;;;;;;5.53;2.60;;;27.10;49.40;;;;;;5055582;28;20199;-9
2022/05/11 12:49:00;;;;;;;3.40;2.20;;;27.10;49.30;;;;;;5055041;28;20164;-8
2022/05/11 12:51:29;;;;;;;4.40;2.67;;;27.10;49.60;;;;;;5054544;28;20168;-8
2022/05/11 12:53:57;;;;;;;2.77;2.30;;;27.10;49.60;;;;;;5050598;28;20168;-6
2022/05/11 12:56:27;;;;;;;3.97;2.40;;;27.10;49.40;;;;;;5046400;28;20172;-8
2022/05/11 12:58:54;;;;;;;5.53;2.40;;;27.10;49.40;;;;;;5047036;28;20258;-7
2022/05/11 13:01:23;;;;;;;2.60;2.37;;;27.10;49.10;;;;;;5054013;28;20207;-9
2022/05/11 13:03:52;;;;;;;6.47;2.57;;;27.10;49.70;;;;;;5054367;28;20772;-8
2022/05/11 13:06:55;;;;;;;4.73;2.23;;;27.10;49.60;;;;;;5049352;28;20567;-9
2022/05/11 13:09:41;;;;;;;5.87;2.40;;;27.10;49.60;;;;;;4985541;28;20201;-7
2022/05/11 13:12:10;;;;;;;4.77;2.70;;;27.10;49.50;;;;;;5043521;28;20275;-7
2022/05/11 13:14:43;;;;;;;5.37;2.60;;;27.10;49.50;;;;;;5045481;28;20174;-6
2022/05/11 13:17:25;;;;;;;5.10;2.20;;;27.10;49.60;;;;;;5046355;28;20537;-10
2022/05/11 13:20:05;;;;;;;5.37;3.10;;;27.10;49.70;;;;;;5046931;28;20396;-8
2022/05/11 13:22:30;;;;;;;2.10;1.90;;;27.10;49.40;;;;;;5046867;28;20172;-9
2022/05/11 13:25:08;;;;;;;4.73;2.70;;;27.10;49.80;;;;;;5048663;28;20199;-10
2022/05/11 13:27:48;;;;;;;4.97;2.60;;;27.10;49.80;;;;;;5054025;28;20234;-8
2022/05/11 13:30:29;;;;;;;3.70;2.30;;;27.10;49.80;;;;;;5047674;28;20218;-8
2022/05/11 13:32:58;;;;;;;4.20;2.27;;;27.10;49.80;;;;;;5046712;28;20574;-8
2022/05/11 13:35:31;;;;;;;2.90;2.40;;;27.10;49.80;;;;;;5047757;28;20308;-12
2022/05/11 13:38:00;;;;;;;4.03;2.50;;;27.10;49.90;;;;;;5050920;28;20244;-10
2022/05/11 13:40:36;;;;;;;8.17;2.93;;;27.10;49.50;;;;;;5049896;28;20195;-8
2022/05/11 13:43:18;;;;;;;3.70;2.50;;;27.10;49.80;;;;;;5049760;28;20172;-8
2022/05/11 13:46:03;;;;;;;4.70;2.47;;;27.10;49.90;;;;;;5047918;28;20364;-8
2022/05/11 13:48:33;;;;;;;2.60;2.40;;;27.10;49.80;;;;;;5051123;28;20169;-8
2022/05/11 13:51:26;;;;;;;4.47;2.70;;;27.10;49.80;;;;;;5050188;28;20204;-8
2022/05/11 13:53:55;;;;;;;4.57;2.90;;;27.10;49.70;;;;;;5047638;28;20180;-9